Topp 250 tider for KCC Lagtempoen - Tempo

Lengde: 39.00 km

Nr Tid Km/t Plassering Fornavn Etternavn Klubb/sted Klasse Lengde År
1 00:50:25 46.41 1 Christoffer Ellingsen Sandnes Sykleklubb M 17-19 39 km 2017
2 00:50:25 46.41 1 Jone Ellingsen Sandnes Sykleklubb M 40-44 39 km 2017
3 00:50:25 46.41 1 Martin Alexander Fatnes Sandnes Sykleklubb M 20-24 39 km 2017
4 00:50:25 46.41 1 Tor Arne Gilje Sandnes Sykleklubb M 20-24 39 km 2017
5 00:50:25 46.41 1 Jon-Emil Svendsbø Sandnes Sykleklubb M 17-19 39 km 2017
6 00:50:26 46.39 1 Magne Hatteland Bryne Cykleklubb M 30-34 39 km 2016
7 00:50:26 46.39 1 Einar Lode Bryne Cykleklubb M 45-49 39 km 2016
8 00:50:26 46.39 1 Thomas Nærland Bryne Cykleklubb M 35-39 39 km 2016
9 00:50:26 46.39 1 Sveinung Orstad Bryne Cykleklubb M 25-29 39 km 2016
10 00:50:46 46.09 6 René Andersen Forus og Gausel Idrettslag - Sykkel M 45-49 39 km 2017
11 00:50:46 46.09 6 Magne Hatteland Bryne Cykleklubb M 30-34 39 km 2017
12 00:50:46 46.09 6 Einar Lode Bryne Cykleklubb M 50-54 39 km 2017
13 00:50:46 46.09 6 Andreas Penne Nygård Rennesøy Sykelklubb M 35-39 39 km 2017
14 00:50:46 46.09 6 Thomas Nærland Bryne Cykleklubb M 35-39 39 km 2017
15 00:50:50 46.03 11 Tor Olav Gregersen CK Haugaland M 35-39 39 km 2017
16 00:50:50 46.03 11 Arne Kalland-Olsen Bokn Sykkelklubb M 17-19 39 km 2017
17 00:50:50 46.03 11 Øystein Olsen CK Haugaland M 40-44 39 km 2017
18 00:50:50 46.03 11 Stein Helge Simonsen Stord Sykleklubb M 40-44 39 km 2017
19 00:50:50 46.03 11 Magne Aarsteinsen CK Haugaland M 20-24 39 km 2017
20 00:50:55 45.95 1 Jone Ellingsen Østerhus Styrbjørn Racing Team / Sandnes SK M 35-39 39 km 2013
21 00:50:55 45.95 1 Geir Henning Larsen Østerhus Styrbjørn Racing Team / Bryne CK M 45-49 39 km 2013
22 00:50:55 45.95 1 Arne Rettedal Østerhus Styrbjørn Racing Team / Bogafjell Syklekl M 40-44 39 km 2013
23 00:50:55 45.95 1 Ronald Valvatne Østerhus Styrbjørn Racing Team / Fusa SK M 45-49 39 km 2013
24 00:50:55 45.95 1 Jarle Aakre Østerhus Styrbjørn Racing Team / Sandnes SK M 40-44 39 km 2013
25 00:50:58 45.91 5 Amund Dyrnes Sandnes Sykleklubb M 25-29 39 km 2016
26 00:50:58 45.91 5 Jone Ellingsen Sandnes Sykleklubb M 35-39 39 km 2016
27 00:50:58 45.91 5 Eirik Mella Sandnes Sykleklubb M 35-39 39 km 2016
28 00:50:58 45.91 5 Arne Rettedal Sandnes Sykleklubb M 40-44 39 km 2016
29 00:51:16 45.64 1 René Andersen Sandnes 1 / Sandnes Sykleklubb M 40-44 39 km 2015
30 00:51:16 45.64 1 Jone Ellingsen Sandnes 1 / Sandnes Sykleklubb M 35-39 39 km 2015
31 00:51:16 45.64 1 Eirik Mella Sandnes 1 / Sandnes Sykleklubb M 35-39 39 km 2015
32 00:51:16 45.64 1 Arne Rettedal Sandnes 1 / Sandnes Sykleklubb M 40-44 39 km 2015
33 00:51:34 45.37 1 Bjørn Petter Kårstad Nærbø SK 1 / Nærbø SK M 30-34 39 km 2014
34 00:51:34 45.37 1 Øyvind Lerbrekk Nærbø SK 1 / Nærbø SK M 30-34 39 km 2014
35 00:51:34 45.37 1 Knut Skaar Nærbø SK 1 / Nærbø SK M 30-34 39 km 2014
36 00:51:34 45.37 1 Alf Våland Nærbø SK 1 / Nærbø SK M 25-29 39 km 2014
37 00:51:36 45.34 5 Ståle Børresen Bryne CK Express lag 1 / Bryne CK M 40-44 39 km 2014
38 00:51:36 45.34 5 Einar Lode Bryne CK Express lag 1 / Bryne CK M 45-49 39 km 2014
39 00:51:36 45.34 5 Frode Mehus Bryne CK Express lag 1 / Bryne CK M 45-49 39 km 2014
40 00:51:36 45.34 5 Thomas Nærland Bryne CK Express lag 1 / Bryne CK M 35-39 39 km 2014
41 00:51:39 45.30 9 Tom Sikveland Nærbø SK 1 / Nærbø SK M 35-39 39 km 2014
42 00:51:53 45.10 5 Ørjan Frøiland Bryne CK Expresslag 1 / Bryne Cykleklubb M 35-39 39 km 2015
43 00:51:53 45.10 5 Einar Lode Bryne CK Expresslag 1 / Bryne Cykleklubb M 45-49 39 km 2015
44 00:51:53 45.10 5 Thomas Nærland Bryne CK Expresslag 1 / Bryne Cykleklubb M 35-39 39 km 2015
45 00:51:53 45.10 5 Knut Reiestad Bryne CK Expresslag 1 / Bryne Cykleklubb M 30-34 39 km 2015
46 00:51:54 45.08 9 Bjørn Helland Sandnes Sykleklubb M 50-54 39 km 2016
47 00:52:00 45 16 Ørjan Frøiland Sandnes Sykleklubb M 35-39 39 km 2017
48 00:52:00 45 16 Per Arvid Gimre Sandnes Sykleklubb M 35-39 39 km 2017
49 00:52:00 45 16 Bjørn Helland Sandnes Sykleklubb M 50-54 39 km 2017
50 00:52:00 45 6 Einar Lode Bryne express / Bryne CK M 45-49 39 km 2013
51 00:52:00 45 6 Helge Løge Bryne express / Bryne CK M 45-49 39 km 2013
52 00:52:00 45 6 Frode Mehus Bryne express / Bryne CK M 40-44 39 km 2013
53 00:52:00 45 16 Eirik Mella Sandnes Sykleklubb M 35-39 39 km 2017
54 00:52:00 45 6 Thomas Nærland Bryne express / Bryne CK M 35-39 39 km 2013
55 00:52:00 45 6 Stian Osmundsen Bryne express / Bryne CK M 35-39 39 km 2013
56 00:52:00 45 16 Arne Rettedal Sandnes Sykleklubb M 45-49 39 km 2017
57 00:52:11 44.84 11 Odd Gaute Andreassen Racing Depot / Sandnes SK M 40-44 39 km 2013
58 00:52:11 44.84 11 Jan Erik Fjotland Racing Depot / Sandnes SK M 45-49 39 km 2013
59 00:52:11 44.84 11 Sondre Kartevoll Racing Depot / Sandnes SK M 35-39 39 km 2013
60 00:52:11 44.84 11 Sebastian Kartfjord Racing Depot / Sandnes SK M 25-29 39 km 2013
61 00:52:11 44.84 11 Johan Frederik Ziesler Racing Depot / Sandnes SK M 20-24 39 km 2013
62 00:53:41 43.58 10 Helmer Berre Stavanger SK TTT / Stavanger SK M 45-49 39 km 2014
63 00:53:41 43.58 10 Bengt Enersgård Stavanger SK TTT / Stavanger SK M 40-44 39 km 2014
64 00:53:41 43.58 10 Truls Grung Stavanger SK TTT / Stavanger SK M 40-44 39 km 2014
65 00:53:41 43.58 10 Jan Egil Gustafsson Stavanger SK TTT / Stavanger SK M 40-44 39 km 2014
66 00:53:41 43.58 10 Trond Hagelin Stavanger SK TTT / Stavanger SK M 45-49 39 km 2014
67 00:54:01 43.31 15 Tore Anvik Team STRIKers / Stavanger Triathlon Klubb Sykkel M 25-29 39 km 2014
68 00:54:01 43.31 15 Svein Bjarte Brendeland Team STRIKers / Stavanger Terrengsykkelklubb M 40-44 39 km 2014
69 00:54:01 43.31 15 Jesper Gejl Hansen Team STRIKers / Stavanger Triathlon Klubb Sykkel M 30-34 39 km 2014
70 00:54:01 43.31 15 Jan-Morten Ra Team STRIKers / Stavanger Triathlon Klubb Sykkel M 30-34 39 km 2014
71 00:54:03 43.29 10 Odd Gaute Andreassen Sandnes Sykleklubb M 40-44 39 km 2016
72 00:54:03 43.29 10 Jan Erik Fjotland Sandnes Sykleklubb M 50-54 39 km 2016
73 00:54:03 43.29 10 Jesper Gejl Hansen Sandnes Sykleklubb M 30-34 39 km 2016
74 00:54:03 43.29 10 Åge André Kolnes Sandnes Sykleklubb M 25-29 39 km 2016
75 00:54:10 43.2 19 Alfred Johnsen Team STRIKers / Stavanger Triathlon Klubb Sykkel M 50-54 39 km 2014
76 00:54:19 43.08 16 Bjørn Helland Sandnes SK veteran / Sandnes SK M 50-54 39 km 2013
77 00:54:19 43.08 16 Asbjørn Lund Johansen Sandnes SK veteran / Sandnes SK M 30-34 39 km 2013
78 00:54:19 43.08 16 Njål Kaavik Sandnes SK veteran / Sandnes SK M 40-44 39 km 2013
79 00:54:19 43.08 16 Sveinung Orstad Sandnes SK veteran / Sandnes SK M 20-24 39 km 2013
80 00:54:19 43.08 16 Tore Tjetland Sandnes SK Veteran / Sandnes SK M 40-44 39 km 2013
81 00:54:35 42.87 20 Roar Børresen TTTosk 2014 / Tasta & Omegn Sykkel Klubb M 45-49 39 km 2014
82 00:54:35 42.87 20 Tore Løining TTTosk 2014 / Tasta & Omegn Sykkel Klubb M 40-44 39 km 2014
83 00:54:35 42.87 20 Harald Todnem TTTosk 2014 / Tasta & Omegn Sykkel Klubb M 30-34 39 km 2014
84 00:54:35 42.87 20 Ole Wasbø TTTosk 2014 / Tasta & Omegn Sykkel Klubb M 40-44 39 km 2014
85 00:54:36 42.85 24 Helge Løge Bryne CK Express Lag 2 / Bryne CK M 45-49 39 km 2014
86 00:54:36 42.85 24 Stian Osmundsen Bryne CK Express lag 2 / Bryne CK / Vestec as M 35-39 39 km 2014
87 00:54:36 42.85 24 Hans Inge Rege Bryne CK Express lag 2 / Bryne CK M 50-54 39 km 2014
88 00:54:36 42.85 24 Tor Helge Vatne Bryne CK Express lag 2 / Bryne CK M 50-54 39 km 2014
89 00:54:36 42.85 24 Jarle Vorland Bryne CK Express lag 2 / Bryne CK M 50-54 39 km 2014
90 00:54:38 42.83 21 Anders Farestveit Tasta & Omegn Sykkel Klubb M 30-34 39 km 2017
91 00:54:38 42.83 21 Halvor Hanasand Tasta & Omegn Sykkel Klubb M 30-34 39 km 2017
92 00:54:38 42.83 21 Svein Erik Haugland Tasta & Omegn Sykkel Klubb M 30-34 39 km 2017
93 00:54:38 42.83 21 Andreas Kverneland Tasta & Omegn Sykkel Klubb M 30-34 39 km 2017
94 00:54:42 42.77 29 Bjørn Helland Need for Speed / Sandnes Sykleklubb M 50-54 39 km 2014
95 00:54:42 42.77 29 Eirik Mella Need for Speed / Sandnes Sykleklubb M 35-39 39 km 2014
96 00:54:42 42.77 29 Sølve Magnus Skogland Need for Speed / Sandnes Sykleklubb M 35-39 39 km 2014
97 00:54:42 42.77 29 Tore Tjetland Need for Speed / Sandnes Sykleklubb M 45-49 39 km 2014
98 00:54:43 42.76 9 Odd Gaute Andreassen Team STRIKers / Sandnes Sykleklubb M 40-44 39 km 2015
99 00:54:43 42.76 9 Tore Anvik Team STRIKers / Stavanger Triathlon Klubb Sykkel M 25-29 39 km 2015
100 00:54:43 42.76 9 Jan Erik Fjotland Team STRIKers / Stavanger Triathlon Klubb Sykkel M 45-49 39 km 2015
101 00:54:43 42.76 9 Alfred Johnsen Team STRIKers / Stavanger Triathlon Klubb Sykkel M 50-54 39 km 2015
102 00:54:48 42.70 21 Jo Henrik Egeland Jarstø Stavanger SK junior / Stavanger SK M 17-19 39 km 2013
103 00:54:48 42.70 21 Sverre Marselius Koi Stavanger SK junior / Stavanger SK M 17-19 39 km 2013
104 00:54:48 42.70 21 Johan Andreas Hole Mohr Stavanger SK junior / Stavanger SK M 17-19 39 km 2013
105 00:54:48 42.70 21 Johan Marandon Monsen Stavanger SK junior / Stavanger SK M 17-19 39 km 2013
106 00:54:48 42.70 21 Markus Waage Stavanger SK junior / Stavanger SK M 17-19 39 km 2013
107 00:54:54 42.62 26 Frode Høyland Nærbø 2 / Nærbø SK M 35-39 39 km 2013
108 00:54:54 42.62 26 Bjørn Petter Kårstad Nærbø 2 / Nærbø SK M 30-34 39 km 2013
109 00:54:54 42.62 26 Henning Mæland Nærbø 2 / Bryne CK M 35-39 39 km 2013
110 00:54:54 42.62 26 Andreas Skaar Nærbø 2 / Nærbø SK M 30-34 39 km 2013
111 00:54:54 42.62 26 Knut Skaar Nærbø 2 / Nærbø SK M 25-29 39 km 2013
112 00:55:03 42.50 31 Helmer Berre Stavanger veteran / Stavanger SK M 45-49 39 km 2013
113 00:55:03 42.50 31 Jan Inge Dersyd Stavanger veteran / Stavanger SK M 45-49 39 km 2013
114 00:55:03 42.50 31 Truls Grung Stavanger veteran / Stavanger SK M 40-44 39 km 2013
115 00:55:03 42.50 31 Jan Egil Gustafsson Stavanger veteran / Stavanger SK M 35-39 39 km 2013
116 00:55:03 42.50 31 Steven King Stavanger veteran / Stavanger SK M 35-39 39 km 2013
117 00:55:04 42.49 13 Arne Andersen KCC Road Vikings / Klepp Cykle Club M 40-44 39 km 2015
118 00:55:04 42.49 13 Attila Hudak KCC Road Vikings / Klepp Cykle Club M 30-34 39 km 2015
119 00:55:04 42.49 13 Robert Kvæven KCC Road Vikings / Klepp Cykle Club M 40-44 39 km 2015
120 00:55:04 42.49 13 Jon Petter Nordbø KCC Road Vikings / Klepp Cykle Club M 30-34 39 km 2015
121 00:55:04 42.49 13 Peter Vestvik KCC Road Vikings / Klepp Cykle Club M 45-49 39 km 2015
122 00:55:11 42.40 33 Arne Andersen KCC Road Vikings / Klepp Cykle Club M 40-44 39 km 2014
123 00:55:11 42.40 14 Njål Fjotland Bryne Cykleklubb M 40-44 39 km 2016
124 00:55:11 42.40 18 Jesper Gejl Hansen Team STRIKers / Sandnes Sykleklubb M 30-34 39 km 2015
125 00:55:11 42.40 33 Robert Kvæven KCC Road Vikings / Klepp Cykle Club M 40-44 39 km 2014
126 00:55:11 42.40 14 Helge Løge Bryne Cykleklubb M 45-49 39 km 2016
127 00:55:11 42.40 14 Stian Osmundsen Bryne Cykleklubb M 35-39 39 km 2016
128 00:55:11 42.40 33 Magnar Refve Stangeland KCC Road Vikings / Klepp Cykle Club M 25-29 39 km 2014
129 00:55:11 42.40 14 Odd Kåre Tønnesen Bryne Cykleklubb M 50-54 39 km 2016
130 00:55:11 42.40 33 Peter Vestvik KCC Road Vikings / Klepp Cykle Club M 45-49 39 km 2014
131 00:55:11 42.40 14 Jarle Vorland Bryne Cykleklubb M 50-54 39 km 2016
132 00:55:12 42.39 36 Stian Madland Nærbø 1 / Nærbø SK M 25-29 39 km 2013
133 00:55:12 42.39 36 Roy Mæland Nærbø 1 / Nærbø SK M 35-39 39 km 2013
134 00:55:12 42.39 36 Alf Våland Nærbø 1 / Nærbø SK M 25-29 39 km 2013
135 00:55:12 42.39 36 Arild Våland Nærbø 1 / Nærbø SK M 25-29 39 km 2013
136 00:55:12 42.39 36 Atle Aanestad Nærbø 1 / Nærbø SK M 40-44 39 km 2013
137 00:55:13 42.37 19 Arne Andersen Klepp Cykle Club M 45-49 39 km 2016
138 00:55:13 42.37 19 Attila Hudak Klepp Cykle Club M 30-34 39 km 2016
139 00:55:13 42.37 19 Jon Petter Nordbø Klepp Cykle Club M 30-34 39 km 2016
140 00:55:13 42.37 19 Peter Vestvik Klepp Cykle Club M 45-49 39 km 2016
141 00:55:16 42.34 37 Thomas Byberg Bogafjell Slipstreams / Bogafjell Sykleklubb M 30-34 39 km 2014
142 00:55:16 42.34 37 Ørjan Frøiland Bogafjell Slipstreams / Bogafjell Sykleklubb M 35-39 39 km 2014
143 00:55:16 42.34 37 Tommy Ivesdal Bogafjell Slipstreams / Bogafjell Sykleklubb M 35-39 39 km 2014
144 00:55:16 42.34 19 Helge Løge Bryne CK Expresslag 2 / Bryne Cykleklubb M 45-49 39 km 2015
145 00:55:16 42.34 19 Stian Osmundsen Bryne CK Expresslag 2 / Bryne Cykleklubb M 35-39 39 km 2015
146 00:55:16 42.34 37 Odd Skailand Bogafjell Slipstreams / Bogafjell Sykleklubb M 40-44 39 km 2014
147 00:55:16 42.34 19 Odd Kåre Tønnesen Bryne CK Expresslag 2 / Bryne Cykleklubb M 50-54 39 km 2015
148 00:55:16 42.34 19 Jarle Vorland Bryne CK Expresslag 2 / Bryne Cykleklubb M 50-54 39 km 2015
149 00:55:17 42.32 41 Sigve Bore KCC Road Vikings / Klepp Cykle Club M 35-39 39 km 2014
150 00:55:20 42.28 23 Fredrik Dversnes Dalane SK M 17-19 39 km 2016
151 00:55:20 42.28 23 Hallgeir Hansen Dalane SK M 40-44 39 km 2016
152 00:55:20 42.28 23 Ernst Mortensen Dalane SK M 45-49 39 km 2016
153 00:55:20 42.28 23 Per Terje Tjåland Dalane SK M 45-49 39 km 2016
154 00:55:24 42.23 41 Alfred Johnsen Team STRIKers / Stavanger Triathlon Klubb Sykkel M 50-54 39 km 2013
155 00:55:24 42.23 41 Stig Magne Loftheim Team STRIKers / Stavanger Triathlon Klubb Sykkel M 30-34 39 km 2013
156 00:55:24 42.23 41 Jan-Morten Ra Team STRIKers / Stavanger Triathlon Klubb Sykkel M 30-34 39 km 2013
157 00:55:24 42.23 41 Sølve Magnus Skogland Team STRIKers / Stavanger Triathlon Klubb Sykkel M 35-39 39 km 2013
158 00:55:24 42.23 41 Sindre Sørensen Team STRIKers / Stavanger Triathlon Klubb Sykkel M 40-44 39 km 2013
159 00:55:25 42.22 27 Rune Holmen Tasta & Omegn Sykkel Klubb M 35-39 39 km 2016
160 00:55:25 42.22 27 Tommy Johnsen Tasta & Omegn Sykkel Klubb M 45-49 39 km 2016
161 00:55:25 42.22 27 Kenneth Pedersen Tasta & Omegn Sykkel Klubb M 45-49 39 km 2016
162 00:55:25 42.22 27 Kim Østebø Tasta & Omegn Sykkel Klubb M 40-44 39 km 2016
163 00:55:26 42.21 42 Bjørn Christian Borg Bogafjell Slipstreams / Bogafjell Sykleklubb M 40-44 39 km 2014
164 00:55:29 42.17 23 Hans Inge Rege Bryne CK Expresslag 2 / Bryne Cykleklubb M 50-54 39 km 2015
165 00:55:32 42.13 24 Hallgeir Hansen Bryne CK Expresslag 3 / Bryne Cykleklubb M 40-44 39 km 2015
166 00:55:32 42.13 24 Kjetil Hansen Bryne CK Expresslag 3 / Bryne Cykleklubb M 40-44 39 km 2015
167 00:55:32 42.13 24 Johnny Høyland Bryne CK Expresslag 3 / Bryne Cykleklubb M 50-54 39 km 2015
168 00:55:32 42.13 24 Tor Helge Vatne Bryne CK Expresslag 3 / Bryne Cykleklubb M 50-54 39 km 2015
169 00:55:39 42.04 25 Ørjan Hegreberg Tasta & Omegn Sykkel Klubb M 30-34 39 km 2017
170 00:55:39 42.04 25 Tommy Johnsen Tasta & Omegn Sykkel Klubb M 45-49 39 km 2017
171 00:55:39 42.04 25 Kenneth Pedersen Tasta & Omegn Sykkel Klubb M 45-49 39 km 2017
172 00:55:39 42.04 25 Børge Rovik Tasta & Omegn Sykkel Klubb M 45-49 39 km 2017
173 00:55:39 42.04 25 Kim Østebø Tasta & Omegn Sykkel Klubb M 40-44 39 km 2017
174 00:55:40 42.03 30 Joakim Frafjord Sandnes Sykleklubb M 17-19 39 km 2017
175 00:55:40 42.03 30 Ole Martin Hagland Sandnes Sykleklubb M 20-24 39 km 2017
176 00:55:40 42.03 30 Andreas Leander Harvey Sandnes Sykleklubb M 20-24 39 km 2017
177 00:55:40 42.03 30 Thomas Ingebretsen Sandnes Sykleklubb M 20-24 39 km 2017
178 00:55:40 42.03 30 Kristjan Osaland Sandnes Sykleklubb M 17-19 39 km 2017
179 00:55:43 41.99 28 Bernt Erland Gatemix / Stavanger SK M 45-49 39 km 2015
180 00:55:43 41.99 28 Arild Finnesand Gatemix / Rennesøy Sykleklubb M 40-44 39 km 2015
181 00:55:43 41.99 28 Jan Egil Gustafsson Gatemix / Stavanger SK M 40-44 39 km 2015
182 00:55:43 41.99 28 Åge André Kolnes Gatemix / Sandnes Sykleklubb M 25-29 39 km 2015
183 00:55:46 41.96 46 Svein Ove Andersen TTTOSK / Tasta & Omegn Sykkel Klubb M 30-34 39 km 2013
184 00:55:46 41.96 46 Roar Børresen TTTOSK / Tasta & Omegn Sykkel Klubb M 40-44 39 km 2013
185 00:55:46 41.96 46 Ståle Børresen TTTOSK / Tasta & Omegn Sykkel Klubb M 40-44 39 km 2013
186 00:55:46 41.96 46 Kåre Torkelsen TTTOSK / Tasta & Omegn Sykkel Klubb M 30-34 39 km 2013
187 00:55:46 41.96 46 Ole Wasbø TTTOSK / Tasta & Omegn Sykkel Klubb M 40-44 39 km 2013
188 00:55:49 41.92 31 Tore Anvik Stavanger TriaK Sykkel M 25-29 39 km 2016
189 00:55:49 41.92 31 Alfred Johnsen Stavanger TriaK Sykkel M 50-54 39 km 2016
190 00:55:49 41.92 31 Sindre Sørensen Stavanger TriaK Sykkel M 40-44 39 km 2016
191 00:55:49 41.92 31 Johan Vik Stavanger TriaK Sykkel M 35-39 39 km 2016
192 00:55:52 41.88 35 Svein Ove Andersen Tasta & Omegn Sykkel Klubb M 30-34 39 km 2016
193 00:55:56 41.83 35 Jo Frøyen Forus og Gausel Idrettslag - Sykkel M 45-49 39 km 2017
194 00:55:56 41.83 35 Bjarte Gausel Forus og Gausel Idrettslag - Sykkel M 40-44 39 km 2017
195 00:55:56 41.83 35 Kjetil Hansen Forus og Gausel Idrettslag - Sykkel M 40-44 39 km 2017
196 00:55:56 41.83 35 Ove Kalvatn Forus og Gausel Idrettslag - Sykkel M 45-49 39 km 2017
197 00:55:56 41.83 35 Erling Kristiansen Forus og Gausel Idrettslag - Sykkel M 40-44 39 km 2017
198 00:56:05 41.72 51 Gunnar Fuglestad Vigrestad-SK Lag1 / Vigrestad Sykkelklubb M 45-49 39 km 2013
199 00:56:05 41.72 51 Oddmund Gravdal Vigrestad-SK Lag1 / Vigrestad Sykkelklubb M 65-69 39 km 2013
200 00:56:05 41.72 51 Johnny Høyland Vigrestad-SK Lag1 / Vigrestad Sykkelklubb M 45-49 39 km 2013
201 00:56:05 41.72 51 Torbjørn Tobias Obrestad Vigrestad-SK Lag1 / Vigrestad Sykkelklubb M 45-49 39 km 2013
202 00:56:05 41.72 51 Berge Opstad Rugland Vigrestad-SK Lag1 / Vigrestad Sykkelklubb / Lyse B M 45-49 39 km 2013
203 00:56:06 41.71 56 Tom Espen Dalaker RSK Gul / Rennesøy Sykleklubb M 35-39 39 km 2013
204 00:56:06 41.71 56 Arild Finnesand RSK Gul / Rennesøy Sykleklubb M 35-39 39 km 2013
205 00:56:06 41.71 56 Ivar Kloster RSK Gul / Rennesøy Sykleklubb M 50-54 39 km 2013
206 00:56:06 41.71 56 Åge André Kolnes RSK Gul / Sandnes SK M 25-29 39 km 2013
207 00:56:06 41.71 56 Eirik Østbø RSK Gul / Rennesøy Sykleklubb M 30-34 39 km 2013
208 00:56:11 41.64 36 Johnny Høyland Bryne Cykleklubb M 50-54 39 km 2016
209 00:56:11 41.64 36 Torbjørn Tobias Obrestad Bryne Cykleklubb M 50-54 39 km 2016
210 00:56:11 41.64 36 Rolf Helge Selliken Bryne Cykleklubb M 50-54 39 km 2016
211 00:56:11 41.64 36 Lars Stangeland Bryne Cykleklubb M 35-39 39 km 2016
212 00:56:11 41.64 36 Tor Helge Vatne Bryne Cykleklubb M 55-59 39 km 2016
213 00:56:14 41.61 43 Arve Friestad Nærbø SK 2 / Nærbø SK M 30-34 39 km 2014
214 00:56:14 41.61 43 Magne Undheim Nærbø SK 2 / Nærbø SK M 35-39 39 km 2014
215 00:56:14 41.61 43 Arild Våland Nærbø SK 2 / Nærbø SK M 25-29 39 km 2014
216 00:56:14 41.61 43 Atle Aanestad Nærbø SK 2 / Nærbø SK M 40-44 39 km 2014
217 00:56:21 41.52 40 Helge Løge Bryne Cykleklubb M 50-54 39 km 2017
218 00:56:21 41.52 40 Stian Osmundsen Bryne Cykleklubb M 40-44 39 km 2017
219 00:56:21 41.52 40 Hans Inge Rege Bryne Cykleklubb M 55-59 39 km 2017
220 00:56:21 41.52 40 Tor Helge Vatne Bryne Cykleklubb M 55-59 39 km 2017
221 00:56:21 41.52 40 Jarle Vorland Bryne Cykleklubb M 55-59 39 km 2017
222 00:56:26 41.46 47 Johnny Høyland Dalane SK / Dalane SK M 45-49 39 km 2014
223 00:56:26 41.46 47 Ernst Mortensen Dalane SK / Dalane SK M 45-49 39 km 2014
224 00:56:26 41.46 47 Fred Skulevold Dalane SK / Dalane SK M 45-49 39 km 2014
225 00:56:26 41.46 47 Tore Vassvik Dalane SK / Dalane SK M 50-54 39 km 2014
226 00:56:28 41.44 32 Njål Fjotland Bryne CK Superlag / Bryne Cykleklubb M 40-44 39 km 2015
227 00:56:28 41.44 32 Magne Hatteland Bryne CK Superlag / Bryne Cykleklubb M 30-34 39 km 2015
228 00:56:28 41.44 32 Steinar Håland Bryne CK Superlag / Bryne Cykleklubb M 30-34 39 km 2015
229 00:56:28 41.44 32 Tore Løining TOSK Tempo Corvette / Tasta & Omegn Sykkel Klubb M 40-44 39 km 2015
230 00:56:28 41.44 32 Kenneth Pedersen TOSK Tempo Corvette / Tasta & Omegn Sykkel Klubb M 40-44 39 km 2015
231 00:56:28 41.44 32 Tore Rydningen TOSK Tempo Corvette / Tasta & Omegn Sykkel Klubb M 40-44 39 km 2015
232 00:56:28 41.44 32 Lars Stangeland Bryne CK Superlag / Bryne Cykleklubb M 35-39 39 km 2015
233 00:56:28 41.44 32 Harald Todnem TOSK Tempo Corvette / Tasta & Omegn Sykkel Klubb M 30-34 39 km 2015
234 00:56:30 41.41 51 Bård Christian Jensen Team STRIKeout / Stavanger Triathlon Klubb Sykkel M 45-49 39 km 2014
235 00:56:30 41.41 51 Hans Jakob Jaatun Team STRIKeout / Stavanger Triathlon Klubb Sykkel M 40-44 39 km 2014
236 00:56:30 41.41 51 Thomas Kvalevåg Team STRIKeout / Stavanger Triathlon Klubb Sykkel M 30-34 39 km 2014
237 00:56:30 41.41 51 Knut Aksel Rydningen Team STRIKeout / Stavanger Triathlon Klubb Sykkel M 30-34 39 km 2014
238 00:56:45 41.23 40 Kim Østebø TOSK Tempo Corvette / Tasta & Omegn Sykkel Klubb M 40-44 39 km 2015
239 00:56:46 41.22 55 Halvor Hanasand TOSK Tempo Corvette / Tasta & Omegn Sykkel Klubb M 25-29 39 km 2014
240 00:56:46 41.22 55 Eirik Idsøe Johannessen TOSK Tempo Corvette / Tasta & Omegn Sykkel Klubb M 35-39 39 km 2014
241 00:56:46 41.22 55 Frode Steine TOSK Tempo Corvette / Tasta & Omegn Sykkel Klubb M 25-29 39 km 2014
242 00:56:46 41.22 55 Kim Østebø TOSK Tempo Corvette / Tasta & Omegn Sykkel Klubb M 40-44 39 km 2014
243 00:56:49 41.18 45 Arne Andersen Klepp Cykle Club M 45-49 39 km 2017
244 00:56:49 41.18 45 Sigve Bore Klepp Cykle Club M 40-44 39 km 2017
245 00:56:49 41.18 45 Andreas Gundersen Bryne Cykleklubb M 17-19 39 km 2017
246 00:56:49 41.18 45 Johnny Høyland Bryne Cykleklubb M 50-54 39 km 2017
247 00:56:49 41.18 45 Steinar Håland Bryne Cykleklubb M 35-39 39 km 2017
248 00:56:49 41.18 45 Kim Arild Myklebust Klepp Cykle Club M 35-39 39 km 2017
249 00:56:49 41.18 45 Jon Petter Nordbø Klepp Cykle Club M 35-39 39 km 2017
250 00:56:49 41.18 45 Torbjørn Tobias Obrestad Bryne Cykleklubb M 50-54 39 km 2017


Lengde: 40.60 km

Nr Tid Km/t Plassering Fornavn Etternavn Klubb/sted Klasse Lengde År
1 00:53:26 45.58 1 Magne Hatteland Bryne Cykleklubb M 30-34 40.60 km 2018
2 00:53:26 45.58 1 Einar Lode Bryne Cykleklubb M 50-54 40.60 km 2018
3 00:53:26 45.58 1 Thomas Nærland Bryne Cykleklubb M 40-44 40.60 km 2018
4 00:53:26 45.58 1 Lars Stangeland Bryne Cykleklubb M 35-39 40.60 km 2018
5 00:54:36 44.61 5 Anders Buland Sandnes Sykkelklubb M 25-29 40.60 km 2018
6 00:54:36 44.61 5 Åge André Kolnes Sandnes Sykkelklubb M 30-34 40.60 km 2018
7 00:54:36 44.61 5 Johannes Olsen Sandnes Sykkelklubb M 30-34 40.60 km 2018
8 00:54:36 44.61 5 Bjørnar Rettedal Sandnes Sykkelklubb M 30-34 40.60 km 2018
9 00:55:04 44.23 9 Stian Osmundsen Bryne Cykleklubb M 40-44 40.60 km 2018
10 00:55:14 44.10 10 Helmer Berre Stavanger SK M 50-54 40.60 km 2018
11 00:55:14 44.10 10 Erik Gysland Stavanger SK M 45-49 40.60 km 2018
12 00:55:14 44.10 10 Ørjan Hegreberg Tasta & omegn sykkelklubb M 30-34 40.60 km 2018
13 00:55:14 44.10 10 Kenneth Pedersen Tasta & omegn sykkelklubb M 45-49 40.60 km 2018
14 00:55:14 44.10 10 Christian Erevik Riise Stavanger SK M 25-29 40.60 km 2018
15 00:57:03 42.69 15 Arne Andersen Klepp Cykle Club M 45-49 40.60 km 2018
16 00:57:03 42.69 15 Magnar Aurmo Bryne Cykleklubb M 45-49 40.60 km 2018
17 00:57:03 42.69 15 Sigve Bore Klepp Cykle Club M 40-44 40.60 km 2018
18 00:57:03 42.69 15 Attila Hudak Klepp Cykle Club M 35-39 40.60 km 2018
19 00:57:03 42.69 15 Stein Johansen Tubakken Sykkelklubb M 40-44 40.60 km 2018
20 00:59:03 41.25 20 Helge Løge Bryne Cykleklubb M 50-54 40.60 km 2018
21 00:59:03 41.25 20 Torbjørn Tobias Obrestad Bryne Cykleklubb M 50-54 40.60 km 2018
22 00:59:03 41.25 20 Rolf Helge Selliken Bryne Cykleklubb M 50-54 40.60 km 2018
23 00:59:03 41.25 20 Tor Helge Vatne Bryne Cykleklubb M 55-59 40.60 km 2018
24 00:59:03 41.25 20 Jarle Vorland Bryne Cykleklubb M 55-59 40.60 km 2018
25 01:07:40 36 25 Tone Hatteland Lima Bryne Cykleklubb K 35-39 40.60 km 2018
26 01:07:40 36 25 Lillian Løyning Bryne Cykleklubb K 50-54 40.60 km 2018
27 01:07:40 36 25 Amy Mir Bryne Cykleklubb K 25-29 40.60 km 2018
28 01:07:40 36 25 Anne Beth Eiken Nilsen Bryne Cykleklubb K 40-44 40.60 km 2018


Sponsorer
Squeezy